Time;durP1;ratioP1;P1;durP2;ratioP2;P2;SDS_P1;SDS_P2;PMS_P1;PMS_P2;Temp;Humidity;BMP_temperature;BMP_pressure;BME280_temperature;BME280_humidity;BME280_pressure;Samples;Min_cycle;Max_cycle;Signal;HPM_P1;HPM_P2
2021/04/15 00:01:23;;;;;;;3.33;3.03;;;8.80;50.80;;;;;;1497508;39;20108;-55
2021/04/15 00:02:44;;;;;;;4.70;3.45;;;8.80;50.90;;;;;;1494801;39;20096;-55
2021/04/15 00:04:06;;;;;;;3.40;3.08;;;8.70;50.70;;;;;;1496294;39;20027;-55
2021/04/15 00:05:29;;;;;;;3.47;2.90;;;8.80;50.80;;;;;;1496435;39;20442;-53
2021/04/15 00:06:50;;;;;;;3.40;3.00;;;8.70;50.70;;;;;;1496899;39;20256;-56
2021/04/15 00:08:12;;;;;;;4.47;3.40;;;8.70;50.70;;;;;;1497359;39;20082;-55
2021/04/15 00:09:33;;;;;;;3.85;3.08;;;8.70;50.70;;;;;;1494342;39;20035;-56
2021/04/15 00:10:57;;;;;;;4.43;3.75;;;8.70;50.70;;;;;;1496657;39;20440;-55
2021/04/15 00:12:18;;;;;;;5.22;3.03;;;8.70;50.90;;;;;;1497180;39;20055;-55
2021/04/15 00:13:50;;;;;;;3.10;2.90;;;8.70;50.70;;;;;;1497306;39;20034;-54
2021/04/15 00:15:14;;;;;;;4.80;3.30;;;8.60;51.10;;;;;;1497241;39;20390;-55
2021/04/15 00:16:36;;;;;;;6.47;3.42;;;8.60;50.70;;;;;;1497360;39;20028;-55
2021/04/15 00:17:57;;;;;;;3.70;3.22;;;8.60;50.70;;;;;;1497016;39;20125;-55
2021/04/15 00:19:19;;;;;;;3.00;2.75;;;8.60;50.60;;;;;;1498633;39;20344;-53
2021/04/15 00:20:40;;;;;;;4.78;3.05;;;8.60;50.70;;;;;;1497391;39;20100;-54
2021/04/15 00:22:01;;;;;;;3.53;2.85;;;8.60;50.70;;;;;;1495306;39;20046;-52
2021/04/15 00:23:22;;;;;;;3.65;3.30;;;8.60;50.80;;;;;;1495497;39;20259;-53
2021/04/15 00:24:43;;;;;;;2.95;2.75;;;8.50;51.00;;;;;;1495448;39;20039;-54
2021/04/15 00:26:06;;;;;;;4.00;3.00;;;8.50;51.10;;;;;;1497783;39;20023;-52
2021/04/15 00:27:27;;;;;;;2.80;2.50;;;8.50;51.10;;;;;;1498697;39;20027;-52
2021/04/15 00:28:53;;;;;;;2.83;2.60;;;8.50;51.00;;;;;;1498539;39;20100;-56
2021/04/15 00:30:14;;;;;;;3.28;2.92;;;8.50;51.30;;;;;;1497287;39;20037;-55
2021/04/15 00:31:35;;;;;;;3.00;2.80;;;8.50;51.10;;;;;;1497461;39;20106;-55
2021/04/15 00:32:56;;;;;;;3.30;3.00;;;8.50;51.00;;;;;;1496923;39;20030;-53
2021/04/15 00:34:17;;;;;;;2.88;2.67;;;8.40;51.00;;;;;;1498917;39;20030;-54
2021/04/15 00:35:39;;;;;;;3.53;2.70;;;8.50;51.00;;;;;;1495874;39;20039;-55
2021/04/15 00:37:00;;;;;;;3.10;2.80;;;8.40;51.10;;;;;;1497461;39;20043;-53
2021/04/15 00:38:24;;;;;;;3.03;2.80;;;8.40;51.00;;;;;;1498613;39;20291;-54
2021/04/15 00:39:44;;;;;;;2.92;2.72;;;8.40;51.00;;;;;;1495562;39;20047;-56
2021/04/15 00:41:09;;;;;;;3.28;2.83;;;8.40;50.90;;;;;;1498921;39;20445;-56
2021/04/15 00:42:30;;;;;;;3.45;3.00;;;8.40;51.00;;;;;;1498165;39;20034;-54
2021/04/15 00:43:51;;;;;;;3.50;2.83;;;8.40;50.90;;;;;;1497744;39;20049;-53
2021/04/15 00:45:17;;;;;;;3.33;2.85;;;8.30;50.80;;;;;;1498124;39;20030;-54
2021/04/15 00:47:09;;;;;;;3.58;2.88;;;8.40;51.00;;;;;;1498331;39;20092;-54
2021/04/15 00:48:39;;;;;;;3.40;2.83;;;8.30;51.20;;;;;;1498691;39;20027;-56
2021/04/15 00:50:03;;;;;;;;;;;8.30;50.90;;;;;;1492962;39;20027;-53
2021/04/15 00:51:52;;;;;;;3.60;2.85;;;8.30;51.30;;;;;;1490217;39;19927;-54
2021/04/15 00:53:20;;;;;;;2.92;2.70;;;8.30;51.20;;;;;;1496836;39;20191;-57
2021/04/15 00:54:51;;;;;;;4.00;3.08;;;8.30;50.60;;;;;;1494750;39;20019;-54
2021/04/15 00:56:12;;;;;;;3.10;2.90;;;8.30;51.00;;;;;;1496895;39;20022;-54
2021/04/15 00:57:36;;;;;;;3.65;2.80;;;8.30;50.70;;;;;;1496023;39;20279;-54
2021/04/15 00:58:58;;;;;;;3.03;2.83;;;8.30;50.90;;;;;;1496167;39;20037;-54
2021/04/15 01:00:25;;;;;;;3.13;2.92;;;8.20;51.00;;;;;;1495991;39;20091;-55
2021/04/15 01:01:46;;;;;;;3.97;3.00;;;8.20;50.90;;;;;;1495008;39;20036;-54
2021/04/15 01:03:08;;;;;;;4.47;2.75;;;8.20;50.80;;;;;;1493013;39;20032;-55
2021/04/15 01:04:29;;;;;;;4.35;2.92;;;8.20;50.90;;;;;;1491808;39;20039;-55
2021/04/15 01:05:50;;;;;;;3.70;2.80;;;8.10;51.00;;;;;;1494993;39;20370;-53
2021/04/15 01:07:11;;;;;;;3.20;2.90;;;8.10;51.10;;;;;;1497047;39;20061;-53
2021/04/15 01:08:32;;;;;;;3.90;3.00;;;8.10;51.10;;;;;;1492921;39;20027;-55
2021/04/15 01:09:54;;;;;;;3.10;2.90;;;8.10;51.20;;;;;;1497400;39;20115;-59
2021/04/15 01:11:41;;;;;;;3.17;2.88;;;8.10;51.40;;;;;;1498924;39;20063;-56
2021/04/15 01:13:46;;;;;;;5.00;3.15;;;8.10;51.70;;;;;;1497288;39;20038;-54
2021/04/15 01:15:36;;;;;;;2.80;2.60;;;8.10;51.70;;;;;;1494646;39;20034;-55
2021/04/15 01:17:06;;;;;;;2.90;2.63;;;8.10;51.70;;;;;;1497736;39;20039;-54
2021/04/15 01:18:30;;;;;;;;;;;8.10;51.40;;;;;;1499431;39;20127;-55
2021/04/15 01:20:18;;;;;;;2.70;2.50;;;8.10;51.60;;;;;;1495408;39;19931;-55
2021/04/15 01:21:47;;;;;;;3.63;2.80;;;8.10;51.10;;;;;;1494529;39;20041;-55
2021/04/15 01:23:24;;;;;;;3.20;3.00;;;8.00;50.80;;;;;;1498276;39;20042;-55
2021/04/15 01:24:49;;;;;;;3.10;2.80;;;8.00;51.20;;;;;;1495190;39;20035;-57
2021/04/15 01:26:37;;;;;;;3.50;2.60;;;8.00;51.10;;;;;;1489436;39;20072;-54
2021/04/15 01:28:20;;;;;;;5.13;3.20;;;8.00;51.40;;;;;;1498632;39;20039;-53
2021/04/15 01:30:00;;;;;;;2.83;2.63;;;8.00;51.40;;;;;;1497566;39;20196;-51
2021/04/15 01:31:31;;;;;;;4.13;3.42;;;7.90;51.60;;;;;;1497049;39;20120;-53
2021/04/15 01:33:13;;;;;;;2.83;2.63;;;7.90;51.30;;;;;;1497496;39;20033;-55
2021/04/15 01:34:50;;;;;;;2.92;2.58;;;7.90;51.60;;;;;;1496679;39;20031;-53
2021/04/15 01:36:18;;;;;;;3.00;2.80;;;7.90;51.40;;;;;;1498075;39;20432;-55
2021/04/15 01:37:53;;;;;;;3.88;3.13;;;7.90;51.40;;;;;;1494765;39;20471;-52
2021/04/15 01:39:21;;;;;;;3.03;2.70;;;7.80;52.10;;;;;;1495768;39;20044;-51
2021/04/15 01:40:48;;;;;;;5.18;2.90;;;7.80;51.70;;;;;;1495380;39;20116;-53
2021/04/15 01:42:13;;;;;;;3.05;2.85;;;7.80;51.70;;;;;;1497250;39;20069;-54
2021/04/15 01:44:00;;;;;;;5.00;3.17;;;7.80;51.80;;;;;;1495237;39;20344;-53
2021/04/15 01:45:21;;;;;;;3.75;2.97;;;7.70;51.80;;;;;;1491160;39;20076;-55
2021/04/15 01:46:43;;;;;;;3.00;2.65;;;7.80;51.60;;;;;;1494718;39;20119;-56
2021/04/15 01:48:14;;;;;;;3.53;3.22;;;7.70;52.10;;;;;;1492301;39;20035;-54
2021/04/15 01:49:38;;;;;;;3.30;3.00;;;7.70;51.80;;;;;;1496173;39;20027;-54
2021/04/15 01:51:05;;;;;;;3.15;2.85;;;7.70;51.80;;;;;;1495120;39;20404;-55
2021/04/15 01:52:29;;;;;;;3.92;2.90;;;7.70;51.90;;;;;;1496831;39;20109;-53
2021/04/15 01:54:00;;;;;;;3.28;2.97;;;7.70;51.80;;;;;;1496021;39;20038;-53
2021/04/15 01:55:29;;;;;;;3.42;3.13;;;7.70;51.80;;;;;;1497687;39;20059;-53
2021/04/15 01:56:57;;;;;;;3.42;3.22;;;7.70;52.60;;;;;;1493403;39;20030;-53
2021/04/15 01:58:25;;;;;;;4.05;3.53;;;7.70;52.10;;;;;;1499929;39;20019;-53
2021/04/15 02:00:07;;;;;;;3.20;2.97;;;7.60;52.20;;;;;;1497006;39;20035;-51
2021/04/15 02:01:33;;;;;;;3.50;3.20;;;7.60;52.30;;;;;;1497358;39;20019;-55
2021/04/15 02:03:01;;;;;;;3.15;2.85;;;7.60;52.00;;;;;;1497935;39;20035;-55
2021/04/15 02:04:27;;;;;;;3.38;3.03;;;7.60;52.00;;;;;;1499249;39;20023;-54
2021/04/15 02:05:55;;;;;;;2.90;2.70;;;7.60;52.00;;;;;;1494796;39;20020;-54
2021/04/15 02:07:19;;;;;;;3.00;2.80;;;7.60;52.20;;;;;;1495831;39;20422;-56
2021/04/15 02:08:45;;;;;;;3.30;2.55;;;7.50;52.10;;;;;;1495029;39;20100;-51
2021/04/15 02:10:09;;;;;;;3.45;3.10;;;7.50;52.10;;;;;;1498635;39;20030;-55
2021/04/15 02:11:46;;;;;;;3.10;2.90;;;7.50;52.00;;;;;;1495409;39;20034;-53
2021/04/15 02:13:10;;;;;;;3.78;3.35;;;7.50;52.20;;;;;;1498097;39;20034;-53
2021/04/15 02:14:35;;;;;;;3.78;3.40;;;7.50;52.20;;;;;;1493981;39;20200;-55
2021/04/15 02:16:04;;;;;;;3.50;3.20;;;7.50;52.20;;;;;;1495918;39;20035;-54
2021/04/15 02:17:26;;;;;;;3.50;3.20;;;7.50;52.40;;;;;;1498630;39;20045;-53
2021/04/15 02:18:53;;;;;;;3.40;3.10;;;7.50;52.20;;;;;;1497801;39;20031;-52
2021/04/15 02:20:17;;;;;;;5.32;3.25;;;7.50;52.50;;;;;;1497368;39;20031;-55
2021/04/15 02:22:23;;;;;;;5.00;3.13;;;7.50;52.50;;;;;;1494699;39;20042;-55
2021/04/15 02:23:55;;;;;;;3.78;2.97;;;7.50;53.00;;;;;;1496229;39;20371;-51
2021/04/15 02:25:39;;;;;;;3.83;3.53;;;7.40;52.50;;;;;;1496026;39;20023;-54
2021/04/15 02:27:07;;;;;;;4.82;3.28;;;7.50;52.40;;;;;;1494600;39;20071;-52
2021/04/15 02:28:55;;;;;;;3.40;3.10;;;7.50;52.40;;;;;;1497524;39;20027;-52
2021/04/15 02:30:26;;;;;;;4.32;3.50;;;7.40;52.40;;;;;;1496219;39;20038;-54
2021/04/15 02:31:57;;;;;;;4.03;3.20;;;7.40;52.30;;;;;;1496475;39;20039;-55
2021/04/15 02:33:30;;;;;;;3.25;2.95;;;7.40;52.30;;;;;;1493792;39;20027;-53
2021/04/15 02:34:59;;;;;;;3.20;2.90;;;7.40;52.30;;;;;;1499676;39;20074;-53
2021/04/15 02:36:23;;;;;;;5.35;3.50;;;7.30;52.30;;;;;;1497576;39;20033;-55
2021/04/15 02:37:52;;;;;;;3.70;3.40;;;7.30;52.20;;;;;;1495096;39;20055;-53
2021/04/15 02:39:21;;;;;;;3.33;3.05;;;7.30;52.50;;;;;;1495781;39;20016;-56
2021/04/15 02:40:57;;;;;;;3.38;3.08;;;7.30;52.50;;;;;;1497173;39;20031;-54
2021/04/15 02:42:26;;;;;;;3.72;2.95;;;7.30;53.10;;;;;;1492434;39;20020;-54
2021/04/15 02:43:55;;;;;;;4.07;3.60;;;7.30;52.50;;;;;;1492797;39;20128;-54
2021/04/15 02:45:31;;;;;;;4.10;3.70;;;7.30;52.70;;;;;;1491607;39;20027;-55
2021/04/15 02:47:06;;;;;;;3.80;3.28;;;7.30;52.80;;;;;;1497783;39;20356;-55
2021/04/15 02:48:30;;;;;;;3.63;3.10;;;7.30;52.80;;;;;;1495560;39;20067;-56
2021/04/15 02:49:54;;;;;;;4.68;3.60;;;7.20;52.70;;;;;;1495649;39;20029;-55
2021/04/15 02:51:27;;;;;;;3.50;3.20;;;7.20;52.80;;;;;;1496778;39;20279;-56
2021/04/15 02:52:56;;;;;;;3.80;3.15;;;7.20;53.00;;;;;;1494673;39;20025;-53
2021/04/15 02:54:30;;;;;;;3.45;3.13;;;7.20;52.90;;;;;;1494408;39;20038;-56
2021/04/15 02:56:05;;;;;;;5.65;3.35;;;7.20;52.90;;;;;;1495511;39;20027;-53
2021/04/15 02:57:33;;;;;;;7.95;3.17;;;7.20;53.00;;;;;;1495562;39;20416;-54
2021/04/15 02:59:06;;;;;;;4.00;3.40;;;7.10;52.90;;;;;;1494017;39;20069;-52
2021/04/15 03:00:34;;;;;;;5.13;3.33;;;7.10;53.00;;;;;;1495935;39;20019;-54
2021/04/15 03:02:00;;;;;;;4.35;3.50;;;7.10;52.90;;;;;;1496589;39;20091;-52
2021/04/15 03:03:25;;;;;;;4.60;3.47;;;7.10;53.00;;;;;;1495423;39;20019;-55
2021/04/15 03:04:52;;;;;;;3.67;3.38;;;7.10;53.00;;;;;;1495084;39;20157;-54
2021/04/15 03:06:19;;;;;;;3.45;3.15;;;7.10;53.00;;;;;;1495377;39;20291;-54
2021/04/15 03:07:43;;;;;;;3.85;3.50;;;7.10;53.00;;;;;;1495365;39;20171;-55
2021/04/15 03:09:07;;;;;;;4.20;3.50;;;7.10;53.00;;;;;;1494245;39;20066;-56
2021/04/15 03:10:36;;;;;;;5.18;3.53;;;7.10;53.00;;;;;;1492680;39;20043;-55
2021/04/15 03:12:04;;;;;;;4.20;3.55;;;7.10;53.10;;;;;;1496538;39;20034;-55
2021/04/15 03:13:50;;;;;;;3.60;3.30;;;7.10;53.00;;;;;;1495910;39;20035;-51
2021/04/15 03:15:20;;;;;;;4.40;3.30;;;7.10;53.20;;;;;;1497081;39;20044;-53
2021/04/15 03:16:44;;;;;;;4.43;3.28;;;7.10;52.90;;;;;;1496284;39;20099;-51
2021/04/15 03:18:12;;;;;;;4.00;3.60;;;7.10;52.80;;;;;;1496985;39;20034;-52
2021/04/15 03:19:39;;;;;;;3.53;3.22;;;7.10;52.90;;;;;;1493998;39;20023;-55
2021/04/15 03:21:13;;;;;;;3.78;3.47;;;7.10;53.00;;;;;;1494585;39;20027;-53
2021/04/15 03:22:39;;;;;;;4.00;3.50;;;7.00;52.90;;;;;;1496670;39;20111;-55
2021/04/15 03:24:15;;;;;;;7.20;4.45;;;7.00;53.00;;;;;;1492506;39;20093;-53
2021/04/15 03:25:36;;;;;;;4.55;4.15;;;7.00;53.10;;;;;;1497222;39;20151;-52
2021/04/15 03:27:10;;;;;;;4.43;3.83;;;7.00;53.00;;;;;;1494383;39;20411;-56
2021/04/15 03:28:36;;;;;;;7.60;4.47;;;7.00;53.10;;;;;;1493801;39;20027;-53
2021/04/15 03:30:00;;;;;;;4.90;3.97;;;7.00;53.10;;;;;;1497522;39;20428;-54
2021/04/15 03:31:26;;;;;;;4.13;3.72;;;7.00;53.10;;;;;;1494348;39;20039;-52
2021/04/15 03:33:02;;;;;;;4.07;3.78;;;6.90;53.10;;;;;;1497767;39;20039;-53
2021/04/15 03:34:39;;;;;;;4.43;3.80;;;7.00;53.10;;;;;;1496441;39;20388;-54
2021/04/15 03:36:20;;;;;;;3.88;3.50;;;6.90;53.40;;;;;;1492192;39;20038;-54
2021/04/15 03:37:58;;;;;;;4.10;3.78;;;6.90;53.50;;;;;;1495389;39;20016;-54
2021/04/15 03:39:32;;;;;;;4.78;3.75;;;6.90;53.20;;;;;;1494914;39;20334;-55
2021/04/15 03:41:04;;;;;;;4.40;3.97;;;7.00;53.20;;;;;;1494249;39;20023;-55
2021/04/15 03:42:28;;;;;;;4.13;3.63;;;6.90;53.10;;;;;;1497276;39;20023;-54
2021/04/15 03:43:55;;;;;;;4.32;3.40;;;6.90;53.00;;;;;;1493736;39;20035;-55
2021/04/15 03:45:31;;;;;;;4.03;3.60;;;6.90;53.40;;;;;;1498222;39;20023;-55
2021/04/15 03:47:04;;;;;;;4.05;3.65;;;6.90;53.80;;;;;;1498646;39;20444;-55
2021/04/15 03:48:29;;;;;;;4.57;3.35;;;6.90;53.20;;;;;;1493338;39;20043;-55
2021/04/15 03:50:01;;;;;;;5.10;3.88;;;6.90;53.00;;;;;;1492883;39;20348;-53
2021/04/15 03:51:25;;;;;;;4.00;3.60;;;6.90;53.20;;;;;;1495668;39;20658;-55
2021/04/15 03:52:55;;;;;;;4.20;3.80;;;6.90;53.00;;;;;;1495751;39;20034;-56
2021/04/15 03:54:21;;;;;;;4.05;3.70;;;6.90;53.00;;;;;;1496469;39;20080;-56
2021/04/15 03:55:47;;;;;;;4.60;4.20;;;6.80;53.00;;;;;;1496453;39;20037;-55
2021/04/15 03:57:14;;;;;;;5.53;4.30;;;6.80;53.00;;;;;;1496470;39;20091;-56
2021/04/15 03:58:42;;;;;;;4.13;3.72;;;6.80;53.20;;;;;;1494727;39;20126;-54
2021/04/15 04:00:09;;;;;;;4.35;3.58;;;6.80;53.30;;;;;;1498426;39;20011;-56
2021/04/15 04:01:36;;;;;;;4.57;4.13;;;6.80;53.30;;;;;;1498895;39;20030;-55
2021/04/15 04:03:05;;;;;;;5.38;4.18;;;6.80;53.40;;;;;;1495930;39;20038;-51
2021/04/15 04:04:50;;;;;;;3.95;3.65;;;6.80;53.60;;;;;;1496579;39;20023;-54
2021/04/15 04:06:19;;;;;;;4.43;3.83;;;6.80;53.70;;;;;;1497095;39;20296;-54
2021/04/15 04:07:45;;;;;;;5.40;3.72;;;6.80;53.60;;;;;;1495216;39;20079;-54
2021/04/15 04:09:29;;;;;;;4.10;3.70;;;6.80;53.50;;;;;;1496303;39;20031;-53
2021/04/15 04:10:54;;;;;;;4.38;3.80;;;6.70;53.80;;;;;;1497546;39;20031;-54
2021/04/15 04:12:31;;;;;;;4.05;3.67;;;6.80;53.50;;;;;;1496236;39;20037;-55
2021/04/15 04:13:56;;;;;;;4.10;3.70;;;6.70;53.50;;;;;;1497193;39;20029;-55
2021/04/15 04:15:26;;;;;;;4.20;3.85;;;6.70;53.50;;;;;;1497472;39;20035;-55
2021/04/15 04:17:02;;;;;;;4.28;3.88;;;6.70;53.80;;;;;;1499516;39;20061;-53
2021/04/15 04:18:33;;;;;;;3.97;3.63;;;6.70;53.70;;;;;;1495423;39;20037;-53
2021/04/15 04:19:55;;;;;;;;;;;6.70;53.70;;;;;;1496214;39;20345;-54
2021/04/15 04:21:39;;;;;;;3.13;2.92;;;6.70;54.20;;;;;;1495919;39;20005;-53
2021/04/15 04:23:23;;;;;;;4.30;3.90;;;6.70;53.40;;;;;;1487087;39;20028;-55
2021/04/15 04:24:59;;;;;;;4.82;3.85;;;6.70;53.50;;;;;;1494877;39;20273;-55
2021/04/15 04:26:25;;;;;;;5.35;3.95;;;6.70;53.60;;;;;;1496628;39;20243;-55
2021/04/15 04:27:55;;;;;;;4.25;3.85;;;6.70;53.30;;;;;;1494573;39;20031;-53
2021/04/15 04:29:35;;;;;;;4.53;4.03;;;6.70;53.60;;;;;;1495932;39;20333;-54
2021/04/15 04:31:08;;;;;;;5.30;4.03;;;6.70;53.90;;;;;;1497408;39;20054;-52
2021/04/15 04:32:30;;;;;;;3.60;3.30;;;6.70;53.60;;;;;;1493989;39;20043;-54
2021/04/15 04:33:55;;;;;;;4.20;3.80;;;6.70;53.40;;;;;;1493405;39;20098;-53
2021/04/15 04:35:22;;;;;;;3.95;3.63;;;6.60;53.50;;;;;;1488658;39;20272;-52
2021/04/15 04:36:45;;;;;;;4.18;3.65;;;6.70;53.80;;;;;;1495539;39;20039;-55
2021/04/15 04:38:09;;;;;;;5.78;4.63;;;6.60;53.70;;;;;;1491567;39;20051;-55
2021/04/15 04:39:31;;;;;;;4.25;3.80;;;6.60;53.80;;;;;;1495711;39;20079;-53
2021/04/15 04:40:56;;;;;;;4.13;3.80;;;6.60;53.70;;;;;;1493086;39;20027;-54
2021/04/15 04:42:37;;;;;;;5.15;4.20;;;6.60;53.90;;;;;;1497420;39;20027;-53
2021/04/15 04:44:14;;;;;;;4.97;4.18;;;6.60;54.30;;;;;;1494842;39;20450;-54
2021/04/15 04:45:36;;;;;;;4.22;3.53;;;6.60;54.30;;;;;;1496581;39;20018;-53
2021/04/15 04:47:09;;;;;;;4.38;3.97;;;6.60;54.00;;;;;;1499767;39;20046;-56
2021/04/15 04:48:32;;;;;;;5.05;3.83;;;6.60;54.30;;;;;;1497551;39;20066;-54
2021/04/15 04:50:01;;;;;;;6.03;3.72;;;6.60;54.00;;;;;;1494752;39;20031;-53
2021/04/15 04:51:31;;;;;;;4.40;4.00;;;6.60;54.30;;;;;;1496665;39;20023;-53
2021/04/15 04:53:06;;;;;;;4.43;3.90;;;6.60;54.10;;;;;;1495818;39;20347;-53
2021/04/15 04:54:28;;;;;;;4.63;4.00;;;6.60;54.20;;;;;;1496374;39;20836;-53
2021/04/15 04:56:24;;;;;;;4.13;3.72;;;6.60;54.10;;;;;;1495722;39;20039;-54
2021/04/15 04:57:45;;;;;;;4.05;3.75;;;6.60;54.70;;;;;;1494422;39;20253;-55
2021/04/15 04:59:16;;;;;;;4.55;4.05;;;6.60;54.10;;;;;;1496025;39;20035;-53
2021/04/15 05:00:45;;;;;;;5.57;4.03;;;6.70;54.40;;;;;;1490516;39;20047;-54
2021/04/15 05:02:06;;;;;;;4.28;3.85;;;6.70;54.40;;;;;;1497595;39;20272;-51
2021/04/15 05:03:29;;;;;;;3.90;3.60;;;6.70;54.30;;;;;;1496790;39;20047;-54
2021/04/15 05:04:50;;;;;;;4.57;4.07;;;6.70;54.50;;;;;;1495625;39;20035;-55
2021/04/15 05:06:22;;;;;;;4.60;4.20;;;6.70;54.50;;;;;;1498512;39;20084;-55
2021/04/15 05:07:45;;;;;;;6.35;4.40;;;6.70;54.80;;;;;;1492808;39;20038;-55
2021/04/15 05:09:21;;;;;;;6.82;3.90;;;6.70;54.60;;;;;;1495626;39;20030;-55
2021/04/15 05:10:42;;;;;;;5.20;4.22;;;6.70;54.50;;;;;;1495604;39;20335;-56
2021/04/15 05:12:12;;;;;;;5.18;3.70;;;6.70;54.60;;;;;;1496978;39;20348;-55
2021/04/15 05:13:34;;;;;;;5.45;4.25;;;6.70;54.90;;;;;;1496153;39;20054;-54
2021/04/15 05:14:57;;;;;;;4.63;3.88;;;6.70;54.80;;;;;;1498575;39;20285;-54
2021/04/15 05:16:17;;;;;;;4.45;3.90;;;6.80;54.80;;;;;;1498009;39;20027;-55
2021/04/15 05:17:41;;;;;;;6.38;4.25;;;6.80;54.90;;;;;;1496114;39;20057;-54
2021/04/15 05:19:02;;;;;;;4.50;4.10;;;6.80;54.90;;;;;;1495193;39;20117;-54
2021/04/15 05:20:25;;;;;;;4.53;3.72;;;6.80;54.90;;;;;;1496973;39;20030;-54
2021/04/15 05:21:48;;;;;;;4.55;3.83;;;6.80;55.00;;;;;;1496046;39;20348;-55
2021/04/15 05:23:57;;;;;;;6.00;3.75;;;6.80;55.20;;;;;;1497775;39;20210;-52
2021/04/15 05:25:30;;;;;;;4.72;3.60;;;6.80;55.70;;;;;;1492165;39;20086;-55
2021/04/15 05:26:53;;;;;;;4.10;3.75;;;6.90;55.40;;;;;;1495431;39;20115;-55
2021/04/15 05:28:16;;;;;;;4.78;4.28;;;6.90;55.20;;;;;;1494725;39;20031;-53
2021/04/15 05:29:40;;;;;;;4.22;3.78;;;6.90;55.30;;;;;;1496628;39;20297;-53
2021/04/15 05:31:05;;;;;;;5.47;4.35;;;6.90;55.40;;;;;;1496754;39;20517;-55
2021/04/15 05:32:27;;;;;;;4.50;4.10;;;7.00;55.50;;;;;;1496034;39;20079;-56
2021/04/15 05:33:48;;;;;;;4.40;4.00;;;7.00;55.40;;;;;;1495894;39;20188;-56
2021/04/15 05:35:15;;;;;;;4.88;4.35;;;7.00;55.40;;;;;;1493540;39;20031;-55
2021/04/15 05:36:38;;;;;;;4.18;3.78;;;7.00;55.50;;;;;;1497860;39;20465;-52
2021/04/15 05:37:59;;;;;;;7.07;4.28;;;7.00;55.50;;;;;;1496683;39;20287;-54
2021/04/15 05:39:20;;;;;;;5.38;4.50;;;7.10;55.50;;;;;;1496824;39;20063;-54
2021/04/15 05:40:42;;;;;;;5.50;4.30;;;7.10;55.60;;;;;;1496236;39;20323;-55
2021/04/15 05:42:13;;;;;;;5.88;4.15;;;7.10;55.50;;;;;;1490875;39;20023;-54
2021/04/15 05:43:42;;;;;;;5.18;4.03;;;7.10;55.70;;;;;;1493556;39;20028;-53
2021/04/15 05:45:17;;;;;;;5.28;4.30;;;7.10;55.70;;;;;;1496700;39;20066;-54
2021/04/15 05:46:42;;;;;;;5.07;4.45;;;7.10;55.70;;;;;;1497109;39;20143;-54
2021/04/15 05:48:08;;;;;;;7.00;4.20;;;7.10;55.50;;;;;;1495827;39;20135;-56
2021/04/15 05:49:38;;;;;;;4.00;3.63;;;7.10;55.60;;;;;;1494931;39;20543;-54
2021/04/15 05:51:04;;;;;;;5.78;4.15;;;7.20;55.80;;;;;;1494744;39;20452;-52
2021/04/15 05:52:25;;;;;;;6.28;4.57;;;7.20;55.60;;;;;;1494538;39;20049;-52
2021/04/15 05:53:57;;;;;;;4.53;3.95;;;7.20;55.50;;;;;;1497972;39;20035;-52
2021/04/15 05:55:34;;;;;;;4.43;3.95;;;7.20;55.80;;;;;;1498293;39;20021;-54
2021/04/15 05:57:04;;;;;;;4.25;3.67;;;7.20;55.80;;;;;;1497006;39;20054;-53
2021/04/15 05:58:57;;;;;;;4.75;3.83;;;7.20;55.60;;;;;;1498689;39;20104;-56
2021/04/15 06:00:30;;;;;;;5.93;3.85;;;7.30;55.80;;;;;;1498022;39;20479;-53
2021/04/15 06:02:12;;;;;;;5.25;4.20;;;7.30;55.60;;;;;;1494042;39;20116;-54
2021/04/15 06:03:48;;;;;;;5.32;4.20;;;7.30;55.90;;;;;;1497824;39;20383;-53
2021/04/15 06:05:16;;;;;;;4.90;4.32;;;7.30;55.70;;;;;;1497123;39;20355;-55
2021/04/15 06:06:39;;;;;;;4.88;4.18;;;7.30;55.70;;;;;;1495998;39;20034;-55
2021/04/15 06:08:06;;;;;;;4.78;3.90;;;7.30;55.50;;;;;;1496574;39;20070;-55
2021/04/15 06:09:27;;;;;;;5.75;3.95;;;7.30;55.70;;;;;;1497380;39;20031;-54
2021/04/15 06:10:50;;;;;;;5.50;4.30;;;7.30;55.60;;;;;;1495862;39;20027;-54
2021/04/15 06:12:17;;;;;;;5.13;4.07;;;7.30;55.70;;;;;;1497670;39;20015;-55
2021/04/15 06:13:48;;;;;;;5.60;4.43;;;7.30;55.90;;;;;;1495815;39;20123;-54
2021/04/15 06:15:14;;;;;;;6.97;4.60;;;7.40;56.20;;;;;;1497324;39;20061;-55
2021/04/15 06:16:43;;;;;;;6.68;4.28;;;7.40;56.10;;;;;;1496791;39;20026;-54
2021/04/15 06:18:44;;;;;;;7.13;4.38;;;7.40;56.30;;;;;;1496773;39;20090;-53
2021/04/15 06:20:12;;;;;;;5.65;4.18;;;7.50;56.60;;;;;;1496998;39;20043;-53
2021/04/15 06:21:42;;;;;;;5.28;3.72;;;7.40;56.20;;;;;;1494507;39;20424;-55
2021/04/15 06:23:14;;;;;;;5.35;4.47;;;7.50;56.30;;;;;;1497967;39;20031;-56
2021/04/15 06:24:35;;;;;;;7.07;4.50;;;7.50;56.30;;;;;;1497615;39;20083;-55
2021/04/15 06:25:56;;;;;;;7.20;4.95;;;7.60;56.30;;;;;;1495983;39;20042;-52
2021/04/15 06:27:18;;;;;;;5.93;4.38;;;7.60;56.20;;;;;;1495952;39;20029;-52
2021/04/15 06:28:42;;;;;;;7.18;5.25;;;7.60;56.20;;;;;;1496419;39;20045;-56
2021/04/15 06:30:16;;;;;;;6.65;5.20;;;7.60;56.40;;;;;;1499033;39;20027;-56
2021/04/15 06:31:42;;;;;;;8.07;4.55;;;7.60;56.50;;;;;;1496421;39;20045;-53
2021/04/15 06:33:10;;;;;;;6.75;4.63;;;7.60;56.40;;;;;;1493146;39;20271;-54
2021/04/15 06:34:31;;;;;;;6.22;4.70;;;7.70;56.50;;;;;;1498614;39;20101;-53
2021/04/15 06:35:55;;;;;;;8.25;4.78;;;7.70;56.40;;;;;;1494057;39;20366;-54
2021/04/15 06:37:21;;;;;;;6.90;5.20;;;7.70;56.40;;;;;;1497822;39;20027;-54
2021/04/15 06:39:01;;;;;;;9.63;5.10;;;7.70;56.60;;;;;;1497356;39;20031;-55
2021/04/15 06:41:07;;;;;;;8.80;4.93;;;7.80;56.80;;;;;;1495443;39;20038;-55
2021/04/15 06:42:53;;;;;;;6.75;5.28;;;7.80;56.80;;;;;;1496423;39;20023;-56
2021/04/15 06:44:32;;;;;;;10.30;6.15;;;7.80;56.50;;;;;;1495429;39;20039;-55
2021/04/15 06:46:30;;;;;;;13.25;6.88;;;7.90;56.40;;;;;;1495211;39;20307;-55
2021/04/15 06:48:13;;;;;;;9.75;6.35;;;7.90;56.50;;;;;;1495006;39;20035;-54
2021/04/15 06:50:01;;;;;;;7.80;6.03;;;7.90;56.40;;;;;;1495196;39;20023;-55
2021/04/15 06:51:31;;;;;;;7.95;6.00;;;8.00;56.40;;;;;;1494805;39;20033;-55
2021/04/15 06:53:20;;;;;;;8.48;6.10;;;8.00;56.40;;;;;;1497607;39;20344;-54
2021/04/15 06:55:22;;;;;;;9.13;6.17;;;8.00;56.50;;;;;;1496127;39;20020;-52
2021/04/15 06:56:48;;;;;;;13.05;6.80;;;8.10;56.40;;;;;;1495600;39;20023;-55
2021/04/15 06:58:35;;;;;;;9.45;6.40;;;8.10;56.00;;;;;;1497156;39;20380;-54
2021/04/15 07:00:14;;;;;;;10.18;6.35;;;8.10;56.00;;;;;;1495805;39;20023;-53
2021/04/15 07:01:50;;;;;;;10.20;6.22;;;8.20;56.10;;;;;;1492628;39;20054;-55
2021/04/15 07:03:42;;;;;;;8.60;5.90;;;8.20;56.10;;;;;;1495929;39;20034;-53
2021/04/15 07:05:11;;;;;;;7.40;5.35;;;8.20;56.20;;;;;;1498224;39;20019;-53
2021/04/15 07:06:43;;;;;;;11.07;6.10;;;8.30;56.00;;;;;;1491617;39;20272;-56
2021/04/15 07:08:12;;;;;;;8.95;6.25;;;8.30;56.20;;;;;;1497865;39;20075;-54
2021/04/15 07:10:03;;;;;;;8.88;6.70;;;8.30;56.00;;;;;;1493464;39;20030;-55
2021/04/15 07:11:49;;;;;;;6.40;5.35;;;8.30;56.20;;;;;;1497400;39;20031;-54
2021/04/15 07:13:24;;;;;;;8.13;5.53;;;8.40;56.10;;;;;;1497531;39;20160;-52
2021/04/15 07:15:06;;;;;;;6.95;5.03;;;8.40;55.80;;;;;;1495568;39;20034;-54
2021/04/15 07:16:42;;;;;;;7.00;5.30;;;8.50;55.90;;;;;;1496173;39;20501;-54
2021/04/15 07:18:45;;;;;;;8.98;5.10;;;8.50;55.70;;;;;;1497333;39;20127;-55
2021/04/15 07:20:40;;;;;;;6.47;5.15;;;8.60;55.90;;;;;;1492510;39;20032;-53
2021/04/15 07:22:31;;;;;;;7.00;4.70;;;8.60;55.80;;;;;;1496234;39;20107;-55
2021/04/15 07:23:58;;;;;;;6.95;5.05;;;8.70;55.60;;;;;;1494763;39;20024;-55
2021/04/15 07:25:28;;;;;;;7.05;5.03;;;8.70;55.50;;;;;;1497605;39;20039;-54
2021/04/15 07:26:58;;;;;;;7.25;5.07;;;8.70;55.40;;;;;;1494551;39;20038;-55
2021/04/15 07:28:50;;;;;;;9.48;4.88;;;8.70;55.40;;;;;;1498763;39;20043;-54
2021/04/15 07:30:26;;;;;;;6.70;4.90;;;8.80;55.40;;;;;;1495712;39;20034;-54
2021/04/15 07:32:12;;;;;;;9.95;5.10;;;8.90;55.30;;;;;;1494312;39;20073;-52
2021/04/15 07:33:49;;;;;;;7.47;5.82;;;8.90;55.70;;;;;;1490294;39;20027;-54
2021/04/15 07:35:10;;;;;;;10.80;6.20;;;8.90;55.10;;;;;;1494244;39;20494;-54
2021/04/15 07:37:17;;;;;;;11.60;6.75;;;9.00;55.00;;;;;;1495709;39;20022;-52
2021/04/15 07:39:02;;;;;;;10.82;6.30;;;9.00;55.00;;;;;;1496516;39;20272;-54
2021/04/15 07:40:32;;;;;;;11.25;6.40;;;9.00;55.00;;;;;;1496229;39;20031;-51
2021/04/15 07:42:07;;;;;;;7.63;6.18;;;9.10;55.00;;;;;;1496082;39;20034;-55
2021/04/15 07:44:12;;;;;;;7.07;4.80;;;9.10;55.00;;;;;;1495713;39;20098;-55
2021/04/15 07:45:56;;;;;;;7.22;4.38;;;9.20;55.70;;;;;;1497824;39;20084;-55
2021/04/15 07:47:31;;;;;;;6.63;4.18;;;9.20;55.00;;;;;;1497199;39;20027;-54
2021/04/15 07:49:09;;;;;;;3.88;3.55;;;9.30;55.20;;;;;;1498236;39;20123;-55
2021/04/15 07:50:42;;;;;;;8.52;3.72;;;9.30;55.10;;;;;;1493911;39;20023;-57
2021/04/15 07:52:08;;;;;;;6.07;4.68;;;9.40;55.00;;;;;;1496937;39;20068;-55
2021/04/15 07:53:33;;;;;;;6.70;4.32;;;9.40;54.80;;;;;;1496526;39;20027;-53
2021/04/15 07:55:06;;;;;;;8.85;4.95;;;9.50;54.60;;;;;;1495593;39;20032;-55
2021/04/15 07:56:58;;;;;;;5.20;4.47;;;9.50;54.50;;;;;;1498904;39;20029;-53
2021/04/15 07:58:41;;;;;;;6.05;4.03;;;9.50;54.40;;;;;;1499282;39;20038;-55
2021/04/15 08:00:05;;;;;;;5.57;4.00;;;9.60;54.50;;;;;;1493357;39;20040;-55